createdAt,value
2017-12-23T00:01:28.584Z,6.60
2017-12-23T00:03:56.119Z,6.60
2017-12-23T00:06:23.703Z,6.60
2017-12-23T00:08:51.239Z,6.50
2017-12-23T00:11:18.747Z,6.50
2017-12-23T00:13:47.003Z,6.30
2017-12-23T00:16:14.684Z,6.30
2017-12-23T00:18:43.025Z,6.30
2017-12-23T00:21:10.528Z,6.20
2017-12-23T00:23:38.015Z,6.20
2017-12-23T00:26:05.508Z,6.20
2017-12-23T00:28:33.991Z,6.20
2017-12-23T00:31:02.256Z,6.30
2017-12-23T00:33:29.795Z,6.30
2017-12-23T00:35:57.291Z,6.20
2017-12-23T00:38:25.546Z,6.20
2017-12-23T00:40:53.042Z,6.10
2017-12-23T00:43:20.535Z,6.10
2017-12-23T00:45:48.155Z,6.20
2017-12-23T00:48:16.631Z,6.20
2017-12-23T00:50:44.886Z,6.10
2017-12-23T00:53:12.511Z,6.10
2017-12-23T00:55:40.017Z,6.20
2017-12-23T00:58:07.516Z,6.10
2017-12-23T01:00:35.016Z,6.10
2017-12-23T01:03:02.531Z,6.20
2017-12-23T01:05:30.024Z,6.20
2017-12-23T01:07:57.514Z,6.10
2017-12-23T01:10:25.008Z,6.10
2017-12-23T01:12:52.526Z,6.10
2017-12-23T01:15:20.015Z,6.00
2017-12-23T01:17:47.518Z,6.10
2017-12-23T01:20:15.012Z,6.00
2017-12-23T01:22:42.504Z,5.90
2017-12-23T01:25:10.015Z,5.90
2017-12-23T01:27:37.510Z,5.90
2017-12-23T01:30:05.015Z,5.80
2017-12-23T01:32:32.512Z,5.90
2017-12-23T01:35:00.771Z,6.00
2017-12-23T01:37:28.267Z,5.90
2017-12-23T01:39:55.774Z,5.90
2017-12-23T01:42:23.283Z,5.90
2017-12-23T01:44:50.799Z,5.80
2017-12-23T01:47:18.313Z,5.90
2017-12-23T01:49:45.811Z,5.90
2017-12-23T01:52:13.315Z,5.90
2017-12-23T01:54:41.594Z,5.90
2017-12-23T01:57:09.871Z,5.90
2017-12-23T01:59:38.133Z,5.90
2017-12-23T02:02:06.413Z,5.80
2017-12-23T02:04:34.675Z,5.80
2017-12-23T02:07:02.180Z,5.80
2017-12-23T02:09:29.690Z,5.80
2017-12-23T02:11:57.187Z,5.80
2017-12-23T02:14:24.722Z,5.80
2017-12-23T02:16:52.987Z,5.80
2017-12-23T02:19:20.660Z,5.80
2017-12-23T02:21:48.919Z,5.80
2017-12-23T02:24:16.411Z,5.80
2017-12-23T02:26:43.909Z,5.80
2017-12-23T02:29:11.429Z,5.80
2017-12-23T02:31:38.955Z,5.70
2017-12-23T02:34:06.436Z,5.60
2017-12-23T02:36:34.747Z,5.60
2017-12-23T02:39:02.243Z,5.60
2017-12-23T02:41:29.736Z,5.60
2017-12-23T02:43:57.247Z,5.60
2017-12-23T02:46:24.744Z,5.60
2017-12-23T02:48:53.123Z,5.60
2017-12-23T02:51:21.403Z,5.70
2017-12-23T02:53:49.659Z,5.70
2017-12-23T02:56:17.174Z,5.70
2017-12-23T02:58:44.682Z,5.70
2017-12-23T03:01:12.183Z,5.70
2017-12-23T03:03:39.693Z,5.80
2017-12-23T03:06:07.192Z,5.80
2017-12-23T03:08:34.691Z,5.80
2017-12-23T03:11:02.231Z,5.80
2017-12-23T03:13:29.727Z,5.80
2017-12-23T03:15:57.224Z,5.80
2017-12-23T03:18:24.730Z,5.80
2017-12-23T03:20:52.224Z,5.80
2017-12-23T03:23:20.499Z,5.70
2017-12-23T03:25:48.046Z,5.70
2017-12-23T03:28:16.302Z,5.80
2017-12-23T03:30:43.824Z,5.80
2017-12-23T03:33:11.330Z,5.90
2017-12-23T03:35:38.831Z,5.90
2017-12-23T03:38:06.322Z,6.00
2017-12-23T03:40:33.823Z,6.00
2017-12-23T03:43:02.091Z,6.00
2017-12-23T03:45:30.354Z,6.00
2017-12-23T03:47:57.867Z,6.10
2017-12-23T03:50:25.355Z,6.10
2017-12-23T03:52:52.853Z,6.20
2017-12-23T03:55:21.109Z,6.10
2017-12-23T03:57:49.378Z,6.20
2017-12-23T04:00:16.867Z,6.10
2017-12-23T04:02:44.367Z,6.20
2017-12-23T04:05:11.874Z,6.10
2017-12-23T04:07:40.158Z,6.20
2017-12-23T04:10:07.648Z,6.20
2017-12-23T04:12:35.158Z,6.20
2017-12-23T04:15:03.420Z,6.20
2017-12-23T04:17:31.685Z,6.20
2017-12-23T04:19:59.200Z,6.20
2017-12-23T04:22:26.707Z,6.30
2017-12-23T04:24:54.207Z,6.40
2017-12-23T04:27:21.714Z,6.30
2017-12-23T04:29:49.227Z,6.40
2017-12-23T04:32:16.722Z,6.40
2017-12-23T04:34:44.218Z,6.40
2017-12-23T04:37:11.726Z,6.40
2017-12-23T04:39:39.235Z,6.50
2017-12-23T04:42:06.734Z,6.50
2017-12-23T04:44:34.226Z,6.40
2017-12-23T04:47:01.735Z,6.40
2017-12-23T04:49:29.355Z,6.40
2017-12-23T04:51:57.637Z,6.60
2017-12-23T04:54:25.942Z,6.60
2017-12-23T04:56:53.458Z,6.60
2017-12-23T04:59:21.134Z,6.50
2017-12-23T05:01:49.394Z,6.50
2017-12-23T05:04:16.911Z,6.50
2017-12-23T05:06:44.415Z,6.50
2017-12-23T05:09:12.691Z,6.70
2017-12-23T05:11:40.996Z,6.70
2017-12-23T05:14:08.503Z,6.70
2017-12-23T05:16:36.016Z,6.70
2017-12-23T05:19:03.513Z,6.70
2017-12-23T05:21:31.012Z,6.70
2017-12-23T05:23:59.272Z,6.70
2017-12-23T05:26:26.790Z,6.60
2017-12-23T05:28:54.290Z,6.60
2017-12-23T05:31:22.574Z,6.70
2017-12-23T05:33:50.868Z,6.80
2017-12-23T05:36:18.381Z,6.70
2017-12-23T05:38:45.889Z,6.70
2017-12-23T05:41:13.400Z,6.80
2017-12-23T05:43:40.896Z,6.80
2017-12-23T05:46:08.394Z,6.80
2017-12-23T05:48:35.906Z,6.70
2017-12-23T05:51:04.167Z,6.70
2017-12-23T05:53:32.474Z,6.80
2017-12-23T05:55:59.968Z,6.70
2017-12-23T05:58:27.463Z,6.70
2017-12-23T06:00:55.762Z,6.70
2017-12-23T06:03:23.282Z,6.60
2017-12-23T06:05:50.827Z,6.80
2017-12-23T06:08:18.323Z,6.80
2017-12-23T06:10:46.591Z,6.90
2017-12-23T06:13:14.855Z,6.90
2017-12-23T06:15:42.368Z,6.80
2017-12-23T06:18:09.867Z,6.80
2017-12-23T06:20:38.126Z,6.80
2017-12-23T06:23:05.622Z,6.80
2017-12-23T06:25:33.995Z,6.90
2017-12-23T06:28:02.267Z,6.80
2017-12-23T06:30:30.546Z,6.90
2017-12-23T06:32:58.853Z,6.90
2017-12-23T06:35:26.354Z,6.90
2017-12-23T06:37:53.858Z,6.90
2017-12-23T06:40:21.362Z,6.90
2017-12-23T06:42:48.874Z,6.90
2017-12-23T06:45:16.388Z,6.90
2017-12-23T06:47:43.923Z,6.80
2017-12-23T06:50:11.419Z,6.90
2017-12-23T06:52:38.915Z,6.90
2017-12-23T06:55:06.426Z,6.90
2017-12-23T06:57:33.938Z,6.90
2017-12-23T07:00:01.427Z,6.80
2017-12-23T07:02:28.918Z,6.80
2017-12-23T07:04:56.420Z,6.90
2017-12-23T07:07:23.957Z,6.80
2017-12-23T07:09:51.458Z,6.90
2017-12-23T07:12:19.244Z,7.00
2017-12-23T07:14:46.758Z,7.00
2017-12-23T07:17:16.101Z,7.00
2017-12-23T07:19:43.599Z,7.00
2017-12-23T07:22:11.248Z,7.10
2017-12-23T07:24:39.510Z,7.00
2017-12-23T07:27:07.162Z,7.00
2017-12-23T07:29:34.691Z,7.10
2017-12-23T07:32:02.182Z,7.00
2017-12-23T07:34:29.715Z,7.00
2017-12-23T07:36:57.207Z,7.00
2017-12-23T07:39:24.711Z,7.10
2017-12-23T07:41:52.231Z,7.10
2017-12-23T07:44:20.492Z,7.10
2017-12-23T07:46:48.043Z,7.10
2017-12-23T07:49:15.541Z,7.10
2017-12-23T07:51:43.799Z,7.00
2017-12-23T07:54:11.311Z,7.00
2017-12-23T07:56:38.819Z,7.00
2017-12-23T07:59:07.095Z,7.00
2017-12-23T08:01:35.359Z,7.00
2017-12-23T08:04:02.866Z,7.00
2017-12-23T08:06:30.503Z,7.10
2017-12-23T08:08:58.768Z,7.10
2017-12-23T08:11:27.040Z,7.20
2017-12-23T08:13:54.539Z,7.20
2017-12-23T08:16:22.054Z,7.20
2017-12-23T08:18:49.556Z,7.20
2017-12-23T08:21:17.051Z,7.20
2017-12-23T08:23:44.632Z,7.20
2017-12-23T08:26:12.149Z,7.20
2017-12-23T08:28:39.650Z,7.20
2017-12-23T08:31:07.151Z,7.30
2017-12-23T08:33:34.702Z,7.30
2017-12-23T08:36:02.219Z,7.30
2017-12-23T08:38:29.716Z,7.40
2017-12-23T08:40:57.261Z,7.40
2017-12-23T08:43:25.524Z,7.40
2017-12-23T08:45:53.031Z,7.40
2017-12-23T08:48:20.571Z,7.40
2017-12-23T08:50:48.067Z,7.40
2017-12-23T08:53:15.575Z,7.40
2017-12-23T08:55:43.851Z,7.50
2017-12-23T08:58:12.124Z,7.50
2017-12-23T09:00:40.477Z,7.50
2017-12-23T09:03:07.987Z,7.50
2017-12-23T09:05:35.499Z,7.60
2017-12-23T09:08:03.000Z,7.60
2017-12-23T09:10:30.523Z,7.60
2017-12-23T09:12:58.791Z,7.60
2017-12-23T09:15:27.064Z,7.60
2017-12-23T09:17:54.599Z,7.60
2017-12-23T09:20:22.079Z,7.70
2017-12-23T09:22:49.622Z,7.70
2017-12-23T09:25:17.086Z,7.80
2017-12-23T09:27:44.591Z,7.80
2017-12-23T09:30:12.104Z,7.90
2017-12-23T09:32:39.625Z,8.00
2017-12-23T09:35:07.123Z,8.00
2017-12-23T09:37:34.616Z,8.00
2017-12-23T09:40:02.879Z,8.00
2017-12-23T09:42:31.368Z,8.00
2017-12-23T09:44:59.849Z,8.10
2017-12-23T09:47:28.113Z,8.10
2017-12-23T09:49:55.613Z,8.10
2017-12-23T09:52:23.111Z,8.10
2017-12-23T09:54:50.606Z,8.10
2017-12-23T09:57:18.862Z,8.10
2017-12-23T09:59:47.355Z,8.10
2017-12-23T10:02:15.637Z,8.10
2017-12-23T10:04:43.898Z,8.20
2017-12-23T10:07:11.408Z,8.10
2017-12-23T10:09:38.912Z,8.20
2017-12-23T10:12:06.412Z,8.20
2017-12-23T10:14:33.911Z,8.20
2017-12-23T10:17:01.401Z,8.30
2017-12-23T10:19:29.675Z,8.40
2017-12-23T10:21:57.942Z,8.30
2017-12-23T10:24:26.206Z,8.40
2017-12-23T10:26:53.706Z,8.30
2017-12-23T10:29:21.211Z,8.40
2017-12-23T10:31:48.703Z,8.30
2017-12-23T10:34:16.988Z,8.30
2017-12-23T10:36:45.251Z,8.40
2017-12-23T10:39:13.541Z,8.40
2017-12-23T10:41:41.795Z,8.40
2017-12-23T10:44:09.288Z,8.40
2017-12-23T10:46:36.823Z,8.40
2017-12-23T10:49:05.081Z,8.50
2017-12-23T10:51:32.572Z,8.50
2017-12-23T10:54:00.832Z,8.50
2017-12-23T10:56:29.089Z,8.60
2017-12-23T10:58:56.578Z,8.60
2017-12-23T11:01:24.839Z,8.60
2017-12-23T11:03:53.099Z,8.60
2017-12-23T11:06:20.617Z,8.60
2017-12-23T11:08:48.116Z,8.60
2017-12-23T11:11:15.611Z,8.60
2017-12-23T11:13:43.115Z,8.60
2017-12-23T11:16:10.611Z,8.60
2017-12-23T11:18:38.887Z,8.70
2017-12-23T11:21:07.147Z,8.80
2017-12-23T11:23:34.649Z,8.70
2017-12-23T11:26:02.172Z,8.80
2017-12-23T11:28:29.662Z,8.80
2017-12-23T11:30:57.170Z,8.80
2017-12-23T11:33:25.455Z,8.80
2017-12-23T11:35:52.951Z,8.70
2017-12-23T11:38:20.459Z,8.80
2017-12-23T11:40:47.979Z,8.70
2017-12-23T11:43:15.474Z,8.70
2017-12-23T11:45:42.972Z,8.70
2017-12-23T11:48:11.231Z,8.80
2017-12-23T11:50:38.732Z,8.70
2017-12-23T11:53:06.235Z,8.70
2017-12-23T11:55:33.751Z,8.70
2017-12-23T11:58:01.268Z,8.70
2017-12-23T12:00:29.539Z,8.80
2017-12-23T12:02:57.031Z,8.70
2017-12-23T12:05:24.543Z,8.80
2017-12-23T12:07:52.042Z,8.80
2017-12-23T12:10:19.543Z,8.70
2017-12-23T12:12:47.034Z,8.80
2017-12-23T12:15:14.531Z,8.80
2017-12-23T12:17:42.051Z,8.80
2017-12-23T12:20:10.323Z,8.90
2017-12-23T12:22:37.815Z,8.90
2017-12-23T12:25:05.327Z,8.90
2017-12-23T12:27:32.831Z,8.90
2017-12-23T12:30:00.336Z,8.90
2017-12-23T12:32:27.955Z,9.00
2017-12-23T12:34:55.456Z,9.00
2017-12-23T12:37:22.962Z,9.10
2017-12-23T12:39:50.464Z,9.10
2017-12-23T12:42:17.971Z,9.10
2017-12-23T12:44:46.239Z,9.20
2017-12-23T12:47:14.515Z,9.20
2017-12-23T12:49:42.779Z,9.20
2017-12-23T12:52:10.278Z,9.20
2017-12-23T12:54:37.775Z,9.20
2017-12-23T12:57:05.287Z,9.20
2017-12-23T12:59:32.782Z,9.20
2017-12-23T13:02:00.279Z,9.40
2017-12-23T13:04:28.587Z,9.40
2017-12-23T13:06:56.099Z,9.30
2017-12-23T13:09:24.371Z,9.30
2017-12-23T13:11:51.998Z,9.30
2017-12-23T13:14:19.491Z,9.50
2017-12-23T13:16:47.755Z,9.50
2017-12-23T13:19:15.281Z,9.50
2017-12-23T13:21:42.774Z,9.40
2017-12-23T13:24:10.268Z,9.40
2017-12-23T13:26:38.531Z,9.30
2017-12-23T13:29:06.799Z,9.30
2017-12-23T13:31:34.302Z,9.20
2017-12-23T13:34:01.803Z,9.20
2017-12-23T13:36:29.295Z,9.20
2017-12-23T13:38:57.774Z,9.10
2017-12-23T13:41:26.039Z,9.10
2017-12-23T13:43:54.303Z,9.10
2017-12-23T13:46:21.805Z,9.10
2017-12-23T13:48:49.315Z,9.10
2017-12-23T13:51:16.812Z,9.10
2017-12-23T13:53:44.351Z,9.10
2017-12-23T13:56:12.623Z,9.10
2017-12-23T13:58:40.147Z,9.10
2017-12-23T14:01:07.688Z,9.10
2017-12-23T14:03:35.222Z,9.10
2017-12-23T14:06:02.728Z,9.10
2017-12-23T14:08:30.343Z,9.10
2017-12-23T14:10:57.847Z,9.00
2017-12-23T14:13:25.346Z,9.00
2017-12-23T14:15:53.607Z,9.00
2017-12-23T14:18:21.104Z,9.00
2017-12-23T14:20:48.607Z,9.00
2017-12-23T14:23:16.115Z,9.00
2017-12-23T14:25:43.615Z,9.10
2017-12-23T14:28:11.155Z,9.10
2017-12-23T14:30:38.647Z,9.10
2017-12-23T14:33:06.154Z,9.10
2017-12-23T14:35:33.656Z,9.00
2017-12-23T14:38:01.151Z,9.10
2017-12-23T14:40:29.415Z,9.00
2017-12-23T14:42:57.687Z,9.00
2017-12-23T14:45:25.972Z,9.00
2017-12-23T14:47:54.239Z,9.00
2017-12-23T14:50:21.738Z,9.00
2017-12-23T14:52:49.242Z,9.00
2017-12-23T14:55:16.743Z,9.00
2017-12-23T14:57:44.279Z,9.00
2017-12-23T15:00:12.551Z,9.00
2017-12-23T15:02:40.051Z,9.00
2017-12-23T15:05:07.563Z,9.00
2017-12-23T15:07:35.079Z,9.10
2017-12-23T15:10:02.579Z,9.10
2017-12-23T15:12:31.891Z,9.20
2017-12-23T15:15:00.215Z,9.20
2017-12-23T15:17:27.718Z,9.20
2017-12-23T15:19:55.212Z,9.20
2017-12-23T15:22:22.708Z,9.30
2017-12-23T15:24:50.414Z,9.20
2017-12-23T15:27:18.715Z,9.20
2017-12-23T15:29:46.215Z,9.20
2017-12-23T15:32:13.755Z,9.20
2017-12-23T15:34:41.250Z,9.20
2017-12-23T15:37:08.744Z,9.20
2017-12-23T15:39:36.259Z,9.10
2017-12-23T15:42:03.752Z,9.10
2017-12-23T15:44:31.292Z,9.10
2017-12-23T15:47:00.315Z,9.20
2017-12-23T15:49:27.815Z,9.20
2017-12-23T15:51:55.360Z,9.10
2017-12-23T15:54:23.071Z,9.10
2017-12-23T15:56:51.382Z,9.20
2017-12-23T15:59:18.880Z,9.10
2017-12-23T16:01:46.383Z,9.20
2017-12-23T16:04:13.919Z,9.20
2017-12-23T16:06:42.187Z,9.10
2017-12-23T16:09:10.448Z,9.10
2017-12-23T16:11:37.948Z,9.10
2017-12-23T16:14:05.455Z,9.10
2017-12-23T16:16:32.951Z,9.10
2017-12-23T16:19:01.218Z,9.10
2017-12-23T16:21:29.711Z,9.00
2017-12-23T16:23:57.970Z,9.10
2017-12-23T16:26:25.471Z,9.00
2017-12-23T16:28:54.335Z,9.00
2017-12-23T16:31:22.623Z,9.10
2017-12-23T16:33:50.444Z,9.10
2017-12-23T16:36:18.062Z,9.00
2017-12-23T16:38:45.562Z,9.00
2017-12-23T16:41:13.075Z,9.00
2017-12-23T16:43:40.600Z,9.00
2017-12-23T16:46:08.862Z,9.00
2017-12-23T16:48:36.363Z,9.00
2017-12-23T16:51:03.855Z,9.00
2017-12-23T16:53:31.347Z,9.00
2017-12-23T16:55:58.847Z,9.10
2017-12-23T16:58:26.339Z,9.10
2017-12-23T17:00:53.851Z,9.10
2017-12-23T17:03:21.396Z,9.00
2017-12-23T17:05:49.663Z,9.10
2017-12-23T17:08:17.935Z,9.10
2017-12-23T17:10:45.432Z,9.10
2017-12-23T17:13:12.919Z,9.10
2017-12-23T17:15:40.437Z,9.10
2017-12-23T17:18:07.944Z,9.10
2017-12-23T17:20:35.455Z,9.10
2017-12-23T17:23:02.951Z,9.00
2017-12-23T17:25:30.447Z,9.00
2017-12-23T17:27:58.715Z,9.10
2017-12-23T17:30:32.324Z,9.10
2017-12-23T17:33:00.625Z,8.90
2017-12-23T17:35:28.121Z,8.90
2017-12-23T17:37:55.614Z,8.90
2017-12-23T17:40:23.882Z,9.00
2017-12-23T17:42:51.396Z,9.00
2017-12-23T17:45:18.983Z,8.90
2017-12-23T17:47:46.479Z,8.90
2017-12-23T17:50:14.743Z,9.00
2017-12-23T17:52:42.247Z,8.90
2017-12-23T17:55:09.751Z,8.90
2017-12-23T17:57:37.268Z,8.90
2017-12-23T18:00:04.763Z,9.00
2017-12-23T18:02:32.280Z,9.00
2017-12-23T18:04:59.796Z,8.90
2017-12-23T18:07:28.074Z,8.90
2017-12-23T18:09:56.337Z,8.90
2017-12-23T18:12:23.833Z,8.90
2017-12-23T18:14:51.327Z,9.00
2017-12-23T18:17:18.830Z,9.00
2017-12-23T18:19:47.091Z,9.00
2017-12-23T18:22:14.776Z,9.00
2017-12-23T18:24:43.026Z,9.00
2017-12-23T18:27:10.539Z,9.00
2017-12-23T18:29:38.047Z,9.00
2017-12-23T18:32:05.538Z,9.00
2017-12-23T18:34:33.031Z,9.00
2017-12-23T18:37:00.535Z,9.00
2017-12-23T18:39:28.811Z,9.00
2017-12-23T18:41:57.076Z,9.10
2017-12-23T18:44:24.564Z,9.10
2017-12-23T18:46:52.067Z,9.10
2017-12-23T18:49:19.563Z,9.10
2017-12-23T18:51:47.834Z,9.10
2017-12-23T18:54:16.092Z,9.10
2017-12-23T18:56:43.603Z,9.10
2017-12-23T18:59:11.092Z,9.10
2017-12-23T19:01:38.596Z,9.10
2017-12-23T19:04:06.852Z,9.00
2017-12-23T19:06:34.361Z,9.00
2017-12-23T19:09:01.985Z,9.10
2017-12-23T19:11:30.239Z,9.20
2017-12-23T19:13:59.241Z,9.20
2017-12-23T19:16:38.796Z,9.20
2017-12-23T19:19:07.064Z,9.20
2017-12-23T19:21:35.367Z,9.10
2017-12-23T19:24:02.856Z,9.10
2017-12-23T19:26:30.352Z,9.20
2017-12-23T19:28:57.844Z,9.20
2017-12-23T19:31:25.339Z,9.30
2017-12-23T19:33:52.834Z,9.30
2017-12-23T19:36:21.091Z,9.30
2017-12-23T19:38:48.586Z,9.30
2017-12-23T19:41:16.076Z,9.30
2017-12-23T19:43:43.575Z,9.30
2017-12-23T19:46:11.083Z,9.30
2017-12-23T19:48:38.578Z,9.30
2017-12-23T19:51:06.085Z,9.30
2017-12-23T19:53:33.586Z,9.30
2017-12-23T19:56:01.123Z,9.30
2017-12-23T19:58:28.651Z,9.30
2017-12-23T20:00:56.139Z,9.30
2017-12-23T20:03:23.626Z,9.30
2017-12-23T20:05:51.122Z,9.30
2017-12-23T20:08:19.391Z,9.30
2017-12-23T20:10:47.651Z,9.50
2017-12-23T20:13:15.146Z,9.40
2017-12-23T20:15:42.638Z,9.40
2017-12-23T20:18:10.127Z,9.40
2017-12-23T20:20:38.517Z,9.40
2017-12-23T20:23:06.823Z,9.40
2017-12-23T20:25:34.321Z,9.40
2017-12-23T20:28:01.944Z,9.50
2017-12-23T20:30:29.451Z,9.30
2017-12-23T20:32:56.946Z,9.30
2017-12-23T20:35:24.460Z,9.40
2017-12-23T20:37:51.955Z,9.40
2017-12-23T20:40:20.211Z,9.30
2017-12-23T20:42:48.607Z,9.40
2017-12-23T20:45:16.881Z,9.40
2017-12-23T20:47:45.139Z,9.40
2017-12-23T20:50:12.747Z,9.40
2017-12-23T20:52:40.255Z,9.40
2017-12-23T20:55:08.513Z,9.40
2017-12-23T20:57:36.007Z,9.30
2017-12-23T21:00:04.484Z,9.40
2017-12-23T21:02:32.740Z,9.40
2017-12-23T21:05:00.231Z,9.40
2017-12-23T21:07:28.488Z,9.40
2017-12-23T21:09:56.004Z,9.40
2017-12-23T21:12:23.519Z,9.40
2017-12-23T21:14:51.031Z,9.30
2017-12-23T21:17:18.548Z,9.40
2017-12-23T21:19:46.058Z,9.30
2017-12-23T21:22:13.599Z,9.30
2017-12-23T21:24:41.099Z,9.40
2017-12-23T21:27:09.370Z,9.40
2017-12-23T21:29:36.864Z,9.40
2017-12-23T21:32:04.378Z,9.30
2017-12-23T21:34:31.874Z,9.30
2017-12-23T21:36:59.380Z,9.30
2017-12-23T21:39:26.867Z,9.30
2017-12-23T21:41:55.131Z,9.30
2017-12-23T21:44:22.639Z,9.30
2017-12-23T21:46:50.135Z,9.30
2017-12-23T21:49:17.638Z,9.30
2017-12-23T21:51:45.130Z,9.30
2017-12-23T21:54:12.627Z,9.30
2017-12-23T21:56:40.131Z,9.20
2017-12-23T21:59:07.622Z,9.20
2017-12-23T22:01:35.126Z,9.20
2017-12-23T22:04:02.621Z,9.30
2017-12-23T22:06:30.124Z,9.20
2017-12-23T22:08:58.395Z,9.20
2017-12-23T22:11:25.903Z,9.20
2017-12-23T22:13:53.391Z,9.20
2017-12-23T22:16:20.883Z,9.30
2017-12-23T22:18:49.144Z,9.10
2017-12-23T22:21:16.642Z,9.10
2017-12-23T22:23:44.131Z,9.10
2017-12-23T22:26:11.631Z,9.20
2017-12-23T22:28:39.903Z,9.00
2017-12-23T22:31:08.159Z,9.10
2017-12-23T22:33:35.663Z,9.10
2017-12-23T22:36:03.155Z,9.10
2017-12-23T22:38:30.666Z,9.10
2017-12-23T22:40:58.935Z,9.00
2017-12-23T22:43:27.192Z,9.00
2017-12-23T22:45:54.690Z,9.00
2017-12-23T22:48:22.192Z,9.00
2017-12-23T22:50:49.733Z,9.00
2017-12-23T22:53:17.216Z,9.00
2017-12-23T22:55:44.709Z,9.00
2017-12-23T22:58:12.975Z,9.00
2017-12-23T23:00:41.343Z,9.00
2017-12-23T23:03:08.903Z,9.00
2017-12-23T23:05:36.405Z,8.90
2017-12-23T23:08:03.907Z,8.90
2017-12-23T23:10:31.422Z,8.90
2017-12-23T23:12:58.927Z,8.90
2017-12-23T23:15:26.467Z,8.90
2017-12-23T23:17:53.959Z,8.90
2017-12-23T23:20:22.239Z,9.10
2017-12-23T23:22:50.506Z,9.00
2017-12-23T23:25:17.995Z,9.00
2017-12-23T23:27:45.490Z,9.00
2017-12-23T23:30:12.980Z,9.10
2017-12-23T23:32:40.660Z,9.10
2017-12-23T23:35:09.002Z,9.00
2017-12-23T23:37:36.516Z,9.00
2017-12-23T23:40:04.007Z,9.00
2017-12-23T23:42:31.511Z,9.00
2017-12-23T23:44:59.771Z,9.10
2017-12-23T23:47:27.272Z,9.10
2017-12-23T23:49:54.782Z,9.10
2017-12-23T23:52:23.787Z,9.10
2017-12-23T23:54:52.070Z,9.10
2017-12-23T23:57:20.347Z,9.10
2017-12-23T23:59:48.606Z,9.10
